createdAt,value
2018-01-27T00:00:22.924Z,39.40
2018-01-27T00:01:23.333Z,39.40
2018-01-27T00:02:22.892Z,42.90
2018-01-27T00:03:22.825Z,38.00
2018-01-27T00:04:22.849Z,38.40
2018-01-27T00:05:22.832Z,40.50
2018-01-27T00:06:22.839Z,42.10
2018-01-27T00:07:22.857Z,39.30
2018-01-27T00:08:22.868Z,36.80
2018-01-27T00:09:23.045Z,39.10
2018-01-27T00:10:23.002Z,42.30
2018-01-27T00:11:22.955Z,37.20
2018-01-27T00:12:22.948Z,40.50
2018-01-27T00:13:22.937Z,38.80
2018-01-27T00:14:22.950Z,40.80
2018-01-27T00:15:22.969Z,38.20
2018-01-27T00:16:22.980Z,36.00
2018-01-27T00:17:22.994Z,42.90
2018-01-27T00:18:23.006Z,37.80
2018-01-27T00:19:23.020Z,40.20
2018-01-27T00:20:23.036Z,42.10
2018-01-27T00:21:23.200Z,39.00
2018-01-27T00:22:23.068Z,41.10
2018-01-27T00:23:23.074Z,38.60
2018-01-27T00:24:23.089Z,37.90
2018-01-27T00:25:23.103Z,44.30
2018-01-27T00:26:23.115Z,40.50
2018-01-27T00:27:23.134Z,38.40
2018-01-27T00:28:23.142Z,42.60
2018-01-27T00:29:23.159Z,41.10
2018-01-27T00:30:23.172Z,44.80
2018-01-27T00:31:23.187Z,39.90
2018-01-27T00:32:23.195Z,37.50
2018-01-27T00:33:23.213Z,38.50
2018-01-27T00:34:23.231Z,39.80
2018-01-27T00:35:23.240Z,40.10
2018-01-27T00:36:23.289Z,40.50
2018-01-27T00:37:23.323Z,41.30
2018-01-27T00:38:23.321Z,39.10
2018-01-27T00:39:23.294Z,40.60
2018-01-27T00:41:23.322Z,38.90
2018-01-27T00:42:23.341Z,37.50
2018-01-27T00:43:23.354Z,42.00
2018-01-27T00:44:23.364Z,42.90
2018-01-27T00:45:23.384Z,40.90
2018-01-27T00:46:23.388Z,40.10
2018-01-27T00:47:23.404Z,37.80
2018-01-27T00:48:23.419Z,36.70
2018-01-27T00:49:23.431Z,43.00
2018-01-27T00:50:23.448Z,37.00
2018-01-27T00:51:23.457Z,41.50
2018-01-27T00:54:23.501Z,37.00
2018-01-27T00:55:23.513Z,39.40
2018-01-27T00:56:23.531Z,43.10
2018-01-27T00:57:23.539Z,41.70
2018-01-27T00:58:23.549Z,42.60
2018-01-27T00:59:23.571Z,41.30
2018-01-27T01:00:23.583Z,43.00
2018-01-27T01:01:23.597Z,43.90
2018-01-27T01:02:23.606Z,41.00
2018-01-27T01:03:23.618Z,44.80
2018-01-27T01:04:23.636Z,41.30
2018-01-27T01:05:23.656Z,41.70
2018-01-27T01:06:23.663Z,42.10
2018-01-27T01:07:23.830Z,46.00
2018-01-27T01:09:23.811Z,41.30
2018-01-27T01:10:24.129Z,42.50
2018-01-27T01:11:23.821Z,41.00
2018-01-27T01:12:23.746Z,42.60
2018-01-27T01:13:23.756Z,47.10
2018-01-27T01:14:23.776Z,46.50
2018-01-27T01:15:23.935Z,41.10
2018-01-27T01:16:24.100Z,43.00
2018-01-27T01:17:23.811Z,43.90
2018-01-27T01:18:23.825Z,43.80
2018-01-27T01:19:23.837Z,44.00
2018-01-27T01:20:23.852Z,44.70
2018-01-27T01:21:23.917Z,43.00
2018-01-27T01:22:23.903Z,46.90
2018-01-27T01:23:23.910Z,45.20
2018-01-27T01:24:23.911Z,44.00
2018-01-27T01:25:23.917Z,46.90
2018-01-27T01:26:23.934Z,43.50
2018-01-27T01:27:23.949Z,42.80
2018-01-27T01:28:23.959Z,44.30
2018-01-27T01:29:23.975Z,45.00
2018-01-27T01:30:23.990Z,44.00
2018-01-27T01:31:24.003Z,44.20
2018-01-27T01:32:24.017Z,42.00
2018-01-27T01:33:24.025Z,43.60
2018-01-27T01:34:24.043Z,44.00
2018-01-27T01:35:24.052Z,43.00
2018-01-27T01:36:24.067Z,43.40
2018-01-27T01:37:24.083Z,45.40
2018-01-27T01:38:24.097Z,43.60
2018-01-27T01:39:24.109Z,45.70
2018-01-27T01:40:24.121Z,44.50
2018-01-27T01:41:24.141Z,44.70
2018-01-27T01:42:24.308Z,46.10
2018-01-27T01:43:24.185Z,47.70
2018-01-27T01:44:24.176Z,47.30
2018-01-27T01:45:24.189Z,45.40
2018-01-27T01:46:24.203Z,43.40
2018-01-27T01:47:24.217Z,46.20
2018-01-27T01:48:24.231Z,43.50
2018-01-27T01:49:24.396Z,44.40
2018-01-27T01:50:24.264Z,44.70
2018-01-27T01:51:24.271Z,45.10
2018-01-27T01:52:24.287Z,47.50
2018-01-27T01:53:24.298Z,48.00
2018-01-27T01:54:24.313Z,46.20
2018-01-27T01:55:24.328Z,42.00
2018-01-27T01:56:24.342Z,46.40
2018-01-27T01:57:24.352Z,47.40
2018-01-27T01:58:24.366Z,46.20
2018-01-27T01:59:24.380Z,45.70
2018-01-27T02:00:24.394Z,49.00
2018-01-27T02:01:24.412Z,50.40
2018-01-27T02:02:24.570Z,49.60
2018-01-27T02:03:24.435Z,48.10
2018-01-27T02:04:24.449Z,47.40
2018-01-27T02:05:24.462Z,48.00
2018-01-27T02:06:24.632Z,48.40
2018-01-27T02:07:24.488Z,50.90
2018-01-27T02:08:24.511Z,48.50
2018-01-27T02:09:24.517Z,50.60
2018-01-27T02:10:24.533Z,47.40
2018-01-27T02:11:24.542Z,48.80
2018-01-27T02:12:24.559Z,47.10
2018-01-27T02:13:24.621Z,48.40
2018-01-27T02:14:24.595Z,50.10
2018-01-27T02:15:24.891Z,48.40
2018-01-27T02:16:24.615Z,51.00
2018-01-27T02:17:24.625Z,48.70
2018-01-27T02:18:24.640Z,50.40
2018-01-27T02:19:24.656Z,52.40
2018-01-27T02:20:24.682Z,49.50
2018-01-27T02:21:24.683Z,49.70
2018-01-27T02:22:24.695Z,51.30
2018-01-27T02:23:24.708Z,51.90
2018-01-27T02:24:24.720Z,48.50
2018-01-27T02:25:24.736Z,52.60
2018-01-27T02:26:24.746Z,50.90
2018-01-27T02:27:24.760Z,50.10
2018-01-27T02:28:24.776Z,50.20
2018-01-27T02:29:24.788Z,51.30
2018-01-27T02:30:24.802Z,50.20
2018-01-27T02:31:24.965Z,55.20
2018-01-27T02:32:24.832Z,54.50
2018-01-27T02:33:24.842Z,50.80
2018-01-27T02:34:24.855Z,57.50
2018-01-27T02:35:24.871Z,51.80
2018-01-27T02:36:25.031Z,53.00
2018-01-27T02:37:24.896Z,53.10
2018-01-27T02:38:24.907Z,56.70
2018-01-27T02:39:24.923Z,52.30
2018-01-27T02:40:24.936Z,52.70
2018-01-27T02:41:24.949Z,50.80
2018-01-27T02:42:24.966Z,56.20
2018-01-27T02:43:25.126Z,56.80
2018-01-27T02:44:24.994Z,54.80
2018-01-27T02:45:25.003Z,54.30
2018-01-27T02:46:25.022Z,50.00
2018-01-27T02:47:25.029Z,55.00
2018-01-27T02:48:25.043Z,53.20
2018-01-27T02:49:25.060Z,57.80
2018-01-27T02:50:25.077Z,57.90
2018-01-27T02:51:25.086Z,58.30
2018-01-27T02:52:25.101Z,56.80
2018-01-27T02:53:25.112Z,56.40
2018-01-27T02:54:25.127Z,55.80
2018-01-27T02:55:25.140Z,56.70
2018-01-27T02:56:25.151Z,53.00
2018-01-27T02:57:25.167Z,56.40
2018-01-27T02:58:25.181Z,53.20
2018-01-27T02:59:25.195Z,53.20
2018-01-27T03:00:25.212Z,55.00
2018-01-27T03:01:25.219Z,52.10
2018-01-27T03:02:25.234Z,54.70
2018-01-27T03:03:25.398Z,54.80
2018-01-27T03:04:25.259Z,51.50
2018-01-27T03:05:25.285Z,54.00
2018-01-27T03:06:25.288Z,59.90
2018-01-27T03:07:25.299Z,53.60
2018-01-27T03:08:25.308Z,52.50
2018-01-27T03:09:25.319Z,54.70
2018-01-27T03:10:25.343Z,55.20
2018-01-27T03:11:25.346Z,55.00
2018-01-27T03:12:25.434Z,55.80
2018-01-27T03:13:25.472Z,51.10
2018-01-27T03:14:25.385Z,60.70
2018-01-27T03:15:25.403Z,56.80
2018-01-27T03:16:25.416Z,55.50
2018-01-27T03:17:25.426Z,59.20
2018-01-27T03:18:25.440Z,52.80
2018-01-27T03:19:25.527Z,54.90
2018-01-27T03:20:25.467Z,58.70
2018-01-27T03:21:25.488Z,54.90
2018-01-27T03:22:25.497Z,58.60
2018-01-27T03:23:25.507Z,57.90
2018-01-27T03:24:25.524Z,57.70
2018-01-27T03:25:25.533Z,57.40
2018-01-27T03:26:25.547Z,55.50
2018-01-27T03:27:25.560Z,52.80
2018-01-27T03:28:25.584Z,56.50
2018-01-27T03:29:25.586Z,58.60
2018-01-27T03:30:25.606Z,56.00
2018-01-27T03:31:25.767Z,56.50
2018-01-27T03:32:25.626Z,52.70
2018-01-27T03:33:25.643Z,55.40
2018-01-27T03:34:25.653Z,56.80
2018-01-27T03:35:25.667Z,56.70
2018-01-27T03:36:25.680Z,61.60
2018-01-27T03:37:25.695Z,54.20
2018-01-27T03:38:25.708Z,59.10
2018-01-27T03:39:25.720Z,58.10
2018-01-27T03:40:25.740Z,59.70
2018-01-27T03:41:25.748Z,62.00
2018-01-27T03:42:25.760Z,58.00
2018-01-27T03:43:25.774Z,56.70
2018-01-27T03:44:25.993Z,58.80
2018-01-27T03:45:25.802Z,58.40
2018-01-27T03:46:25.814Z,60.00
2018-01-27T03:47:25.862Z,58.80
2018-01-27T03:48:25.851Z,54.80
2018-01-27T03:49:25.854Z,57.50
2018-01-27T03:50:25.868Z,54.50
2018-01-27T03:51:25.931Z,59.70
2018-01-27T03:52:25.898Z,60.50
2018-01-27T03:53:25.909Z,61.10
2018-01-27T03:54:25.921Z,63.60
2018-01-27T03:55:25.934Z,68.80
2018-01-27T03:56:25.949Z,64.00
2018-01-27T03:57:25.961Z,64.60
2018-01-27T03:58:25.975Z,64.70
2018-01-27T03:59:26.317Z,70.50
2018-01-27T04:00:26.529Z,65.90
2018-01-27T04:01:26.015Z,68.50
2018-01-27T04:02:26.028Z,66.00
2018-01-27T04:03:26.043Z,65.00
2018-01-27T04:04:26.059Z,70.70
2018-01-27T04:05:26.068Z,67.50
2018-01-27T04:06:26.087Z,69.20
2018-01-27T04:07:26.094Z,71.10
2018-01-27T04:08:26.109Z,66.90
2018-01-27T04:09:26.123Z,68.30
2018-01-27T04:10:26.133Z,66.10
2018-01-27T04:11:26.148Z,66.00
2018-01-27T04:12:26.310Z,62.20
2018-01-27T04:13:26.173Z,69.90
2018-01-27T04:14:26.191Z,64.40
2018-01-27T04:15:26.202Z,71.50
2018-01-27T04:16:26.224Z,66.40
2018-01-27T04:17:26.264Z,70.20
2018-01-27T04:18:26.241Z,74.30
2018-01-27T04:19:26.251Z,70.60
2018-01-27T04:20:26.273Z,65.70
2018-01-27T04:21:26.279Z,73.90
2018-01-27T04:22:26.294Z,71.90
2018-01-27T04:23:26.352Z,71.90
2018-01-27T04:24:26.316Z,71.10
2018-01-27T04:25:26.329Z,74.10
2018-01-27T04:26:26.344Z,71.00
2018-01-27T04:27:26.357Z,76.00
2018-01-27T04:28:26.370Z,75.50
2018-01-27T04:29:26.382Z,73.40
2018-01-27T04:30:26.396Z,77.60
2018-01-27T04:31:26.418Z,72.10
2018-01-27T04:32:26.470Z,75.10
2018-01-27T04:33:26.434Z,71.70
2018-01-27T04:34:26.446Z,73.10
2018-01-27T04:35:26.460Z,73.20
2018-01-27T04:36:26.471Z,73.10
2018-01-27T04:37:26.498Z,76.30
2018-01-27T04:38:26.497Z,79.00
2018-01-27T04:39:26.532Z,76.90
2018-01-27T04:40:26.528Z,81.70
2018-01-27T04:41:26.543Z,76.50
2018-01-27T04:42:26.550Z,75.90
2018-01-27T04:43:26.562Z,76.60
2018-01-27T04:44:26.576Z,73.10
2018-01-27T04:45:26.589Z,76.50
2018-01-27T04:46:26.605Z,74.60
2018-01-27T04:47:26.616Z,82.00
2018-01-27T04:48:26.629Z,74.30
2018-01-27T04:49:26.644Z,79.50
2018-01-27T04:50:26.660Z,75.60
2018-01-27T04:51:26.668Z,78.00
2018-01-27T04:52:27.021Z,77.50
2018-01-27T04:53:27.010Z,75.70
2018-01-27T04:54:26.732Z,76.00
2018-01-27T04:55:26.718Z,74.00
2018-01-27T04:56:27.071Z,76.40
2018-01-27T04:57:26.753Z,83.40
2018-01-27T04:58:26.758Z,74.80
2018-01-27T04:59:26.774Z,77.30
2018-01-27T05:00:26.836Z,74.70
2018-01-27T05:01:26.801Z,81.30
2018-01-27T05:02:26.812Z,77.30
2018-01-27T05:03:26.823Z,79.90
2018-01-27T05:04:26.839Z,81.90
2018-01-27T05:05:26.848Z,81.20
2018-01-27T05:06:26.878Z,80.20
2018-01-27T05:07:26.874Z,79.90
2018-01-27T05:08:26.889Z,77.70
2018-01-27T05:09:26.903Z,79.30
2018-01-27T05:10:27.103Z,74.70
2018-01-27T05:11:26.927Z,83.30
2018-01-27T05:12:26.941Z,83.10
2018-01-27T05:13:26.954Z,81.40
2018-01-27T05:14:26.969Z,76.70
2018-01-27T05:15:26.990Z,80.00
2018-01-27T05:16:26.996Z,77.70
2018-01-27T05:17:27.010Z,82.20
2018-01-27T05:18:27.022Z,78.60
2018-01-27T05:19:27.187Z,86.30
2018-01-27T05:20:27.093Z,79.50
2018-01-27T05:21:27.061Z,76.80
2018-01-27T05:22:27.076Z,75.40
2018-01-27T05:23:27.086Z,79.60
2018-01-27T05:24:27.101Z,74.80
2018-01-27T05:25:27.263Z,83.40
2018-01-27T05:26:27.125Z,85.00
2018-01-27T05:27:27.153Z,76.80
2018-01-27T05:28:27.150Z,74.20
2018-01-27T05:29:27.164Z,75.70
2018-01-27T05:30:27.179Z,79.10
2018-01-27T05:31:27.190Z,80.70
2018-01-27T05:32:27.232Z,77.20
2018-01-27T05:33:27.216Z,79.10
2018-01-27T05:34:27.231Z,72.60
2018-01-27T05:35:27.243Z,79.60
2018-01-27T05:36:27.256Z,79.20
2018-01-27T05:37:27.268Z,74.60
2018-01-27T05:38:27.281Z,81.60
2018-01-27T05:39:27.296Z,74.50
2018-01-27T05:40:27.310Z,79.60
2018-01-27T05:41:27.318Z,80.40
2018-01-27T05:42:27.332Z,76.90
2018-01-27T05:43:27.344Z,80.20
2018-01-27T05:44:27.510Z,79.10
2018-01-27T05:45:27.375Z,76.70
2018-01-27T05:46:27.384Z,83.70
2018-01-27T05:47:27.398Z,75.00
2018-01-27T05:48:27.561Z,77.70
2018-01-27T05:49:27.424Z,73.90
2018-01-27T05:50:27.448Z,73.10
2018-01-27T05:51:27.459Z,72.20
2018-01-27T05:52:27.461Z,70.60
2018-01-27T05:53:27.475Z,72.70
2018-01-27T05:54:27.639Z,69.70
2018-01-27T05:55:27.501Z,68.60
2018-01-27T05:56:27.514Z,68.20
2018-01-27T05:57:27.539Z,74.40
2018-01-27T05:58:27.695Z,74.90
2018-01-27T05:59:27.707Z,69.90
2018-01-27T06:00:27.680Z,67.70
2018-01-27T06:01:27.583Z,74.40
2018-01-27T06:02:27.600Z,68.30
2018-01-27T06:03:27.606Z,74.20
2018-01-27T06:04:27.618Z,73.50
2018-01-27T06:05:27.631Z,73.10
2018-01-27T06:07:27.720Z,75.60
2018-01-27T06:08:27.992Z,80.30
2018-01-27T06:09:27.683Z,77.20
2018-01-27T06:10:27.697Z,74.50
2018-01-27T06:11:27.709Z,81.10
2018-01-27T06:12:27.724Z,77.40
2018-01-27T06:13:27.736Z,73.00
2018-01-27T06:14:27.749Z,75.10
2018-01-27T06:15:27.765Z,74.10
2018-01-27T06:16:27.776Z,71.70
2018-01-27T06:17:27.789Z,75.60
2018-01-27T06:18:27.801Z,69.00
2018-01-27T06:19:27.815Z,75.60
2018-01-27T06:20:27.827Z,74.20
2018-01-27T06:21:27.841Z,77.50
2018-01-27T06:22:27.854Z,79.80
2018-01-27T06:23:27.869Z,71.90
2018-01-27T06:24:27.882Z,75.30
2018-01-27T06:25:27.892Z,70.70
2018-01-27T06:26:27.905Z,78.10
2018-01-27T06:27:27.919Z,68.30
2018-01-27T06:28:27.933Z,80.70
2018-01-27T06:29:27.945Z,76.30
2018-01-27T06:30:27.958Z,76.60
2018-01-27T06:31:27.974Z,76.40
2018-01-27T06:32:27.993Z,72.80
2018-01-27T06:33:28.001Z,74.80
2018-01-27T06:34:28.012Z,75.80
2018-01-27T06:35:28.025Z,70.30
2018-01-27T06:36:28.039Z,73.10
2018-01-27T06:37:28.052Z,82.60
2018-01-27T06:38:28.063Z,76.90
2018-01-27T06:39:28.081Z,74.10
2018-01-27T06:40:28.101Z,74.90
2018-01-27T06:41:28.114Z,76.50
2018-01-27T06:42:28.118Z,69.10
2018-01-27T06:43:28.134Z,77.60
2018-01-27T06:44:28.148Z,74.80
2018-01-27T06:45:28.157Z,69.70
2018-01-27T06:46:28.171Z,76.10
2018-01-27T06:47:28.183Z,69.10
2018-01-27T06:48:28.197Z,74.10
2018-01-27T06:49:28.211Z,73.20
2018-01-27T06:50:28.224Z,68.90
2018-01-27T06:51:28.240Z,74.00
2018-01-27T06:52:28.249Z,76.30
2018-01-27T06:53:28.263Z,71.50
2018-01-27T06:54:28.275Z,70.00
2018-01-27T06:55:28.334Z,68.50
2018-01-27T06:56:28.303Z,65.80
2018-01-27T06:57:28.321Z,71.00
2018-01-27T06:58:28.341Z,69.60
2018-01-27T06:59:28.343Z,65.10
2018-01-27T07:00:28.363Z,71.70
2018-01-27T07:01:28.371Z,62.70
2018-01-27T07:02:28.419Z,67.70
2018-01-27T07:03:28.400Z,64.40
2018-01-27T07:04:28.424Z,61.40
2018-01-27T07:05:28.424Z,64.90
2018-01-27T07:06:28.436Z,63.00
2018-01-27T07:07:28.449Z,64.10
2018-01-27T07:08:28.466Z,62.50
2018-01-27T07:09:28.878Z,61.80
2018-01-27T07:10:28.491Z,65.90
2018-01-27T07:11:28.506Z,64.50
2018-01-27T07:12:28.516Z,59.50
2018-01-27T07:13:28.531Z,60.90
2018-01-27T07:14:28.543Z,68.20
2018-01-27T07:15:28.563Z,64.90
2018-01-27T07:16:28.569Z,65.40
2018-01-27T07:17:28.584Z,61.80
2018-01-27T07:18:28.597Z,63.30
2018-01-27T07:19:28.608Z,66.20
2018-01-27T07:20:28.623Z,61.70
2018-01-27T07:21:28.639Z,64.40
2018-01-27T07:22:28.653Z,66.40
2018-01-27T07:23:28.668Z,70.70
2018-01-27T07:24:28.675Z,67.10
2018-01-27T07:25:28.689Z,69.60
2018-01-27T07:26:28.701Z,69.40
2018-01-27T07:27:28.715Z,66.30
2018-01-27T07:28:28.729Z,66.00
2018-01-27T07:29:28.744Z,72.70
2018-01-27T07:30:28.753Z,64.20
2018-01-27T07:31:28.767Z,69.00
2018-01-27T07:32:28.782Z,70.10
2018-01-27T07:33:28.797Z,70.50
2018-01-27T07:34:28.809Z,67.40
2018-01-27T07:35:28.825Z,68.50
2018-01-27T07:36:28.836Z,65.50
2018-01-27T07:37:28.935Z,70.20
2018-01-27T07:38:28.861Z,67.20
2018-01-27T07:39:28.979Z,69.90
2018-01-27T07:40:29.155Z,74.90
2018-01-27T07:41:28.902Z,67.40
2018-01-27T07:42:28.923Z,70.80
2018-01-27T07:43:28.927Z,74.30
2018-01-27T07:44:28.944Z,71.60
2018-01-27T07:45:28.956Z,72.40
2018-01-27T07:46:28.980Z,73.70
2018-01-27T07:47:28.983Z,68.40
2018-01-27T07:48:29.146Z,69.90
2018-01-27T07:49:29.010Z,76.70
2018-01-27T07:50:29.022Z,73.00
2018-01-27T07:51:29.036Z,73.60
2018-01-27T07:52:29.054Z,71.60
2018-01-27T07:53:29.064Z,74.90
2018-01-27T07:54:29.077Z,74.00
2018-01-27T07:55:29.089Z,75.20
2018-01-27T07:56:29.102Z,73.40
2018-01-27T07:57:29.116Z,71.50
2018-01-27T07:58:29.128Z,69.30
2018-01-27T07:59:29.142Z,72.70
2018-01-27T08:00:29.157Z,67.50
2018-01-27T08:01:29.169Z,72.70
2018-01-27T08:02:29.186Z,76.20
2018-01-27T08:03:29.199Z,76.50
2018-01-27T08:04:29.216Z,72.10
2018-01-27T08:05:29.224Z,75.40
2018-01-27T08:06:29.244Z,72.80
2018-01-27T08:07:29.282Z,73.00
2018-01-27T08:08:29.261Z,72.20
2018-01-27T08:09:29.288Z,75.50
2018-01-27T08:10:29.291Z,73.10
2018-01-27T08:11:29.303Z,70.10
2018-01-27T08:12:29.317Z,72.60
2018-01-27T08:13:29.330Z,71.00
2018-01-27T08:14:29.614Z,73.20
2018-01-27T08:15:29.469Z,77.60
2018-01-27T08:16:29.369Z,75.80
2018-01-27T08:17:29.433Z,76.20
2018-01-27T08:18:29.394Z,77.20
2018-01-27T08:19:29.408Z,73.20
2018-01-27T08:20:29.425Z,75.10
2018-01-27T08:21:29.434Z,73.70
2018-01-27T08:22:29.607Z,69.70
2018-01-27T08:23:29.465Z,75.10
2018-01-27T08:24:29.476Z,75.20
2018-01-27T08:25:29.490Z,75.50
2018-01-27T08:26:29.502Z,77.00
2018-01-27T08:27:29.514Z,76.00
2018-01-27T08:28:29.632Z,78.20
2018-01-27T08:29:29.542Z,71.90
2018-01-27T08:30:29.560Z,80.30
2018-01-27T08:31:29.569Z,80.90
2018-01-27T08:32:29.582Z,81.70
2018-01-27T08:33:29.604Z,74.10
2018-01-27T08:34:29.615Z,75.90
2018-01-27T08:35:29.628Z,74.70
2018-01-27T08:36:29.636Z,71.10
2018-01-27T08:37:29.652Z,76.10
2018-01-27T08:38:29.666Z,76.70
2018-01-27T08:39:29.693Z,76.10
2018-01-27T08:40:29.701Z,77.90
2018-01-27T08:41:29.730Z,81.40
2018-01-27T08:42:29.726Z,73.10
2018-01-27T08:43:29.731Z,81.70
2018-01-27T08:44:29.751Z,79.90
2018-01-27T08:45:29.760Z,76.50
2018-01-27T08:46:29.772Z,81.60
2018-01-27T08:47:29.786Z,80.50
2018-01-27T08:48:29.799Z,78.50
2018-01-27T08:49:29.811Z,77.30
2018-01-27T08:50:29.827Z,77.30
2018-01-27T08:51:29.841Z,78.80
2018-01-27T08:52:29.855Z,77.50
2018-01-27T08:53:29.865Z,82.70
2018-01-27T08:54:29.882Z,78.40
2018-01-27T08:55:29.893Z,85.40
2018-01-27T08:56:29.905Z,78.90
2018-01-27T08:57:29.923Z,74.10
2018-01-27T08:58:29.934Z,79.60
2018-01-27T08:59:29.952Z,77.10
2018-01-27T09:00:30.162Z,75.80
2018-01-27T09:01:29.974Z,74.80
2018-01-27T09:02:29.991Z,76.20
2018-01-27T09:03:30.001Z,78.80
2018-01-27T09:04:30.031Z,82.70
2018-01-27T09:05:30.026Z,80.30
2018-01-27T09:06:30.048Z,75.90
2018-01-27T09:07:30.053Z,75.60
2018-01-27T09:08:30.072Z,76.40
2018-01-27T09:09:30.094Z,76.20
2018-01-27T09:10:30.110Z,72.50
2018-01-27T09:11:30.108Z,74.80
2018-01-27T09:12:30.150Z,68.60
2018-01-27T09:13:30.355Z,72.80
2018-01-27T09:14:30.149Z,74.90
2018-01-27T09:15:30.191Z,71.60
2018-01-27T09:16:30.177Z,70.90
2018-01-27T09:17:30.193Z,71.20
2018-01-27T09:18:30.202Z,72.70
2018-01-27T09:19:30.218Z,69.20
2018-01-27T09:20:30.233Z,66.60
2018-01-27T09:21:30.250Z,61.30
2018-01-27T09:22:30.441Z,59.10
2018-01-27T09:23:30.710Z,60.10
2018-01-27T09:24:30.282Z,68.50
2018-01-27T09:25:30.298Z,63.20
2018-01-27T09:26:30.316Z,59.40
2018-01-27T09:27:30.355Z,62.50
2018-01-27T09:28:30.338Z,64.40
2018-01-27T09:29:30.349Z,58.90
2018-01-27T09:30:30.671Z,67.40
2018-01-27T09:31:30.380Z,63.20
2018-01-27T09:32:30.391Z,62.60
2018-01-27T09:33:30.404Z,57.60
2018-01-27T09:34:30.419Z,57.00
2018-01-27T09:35:30.436Z,62.40
2018-01-27T09:36:30.446Z,61.60
2018-01-27T09:37:30.459Z,61.10
2018-01-27T09:38:30.474Z,59.10
2018-01-27T09:39:30.509Z,59.60
2018-01-27T09:40:30.503Z,59.50
2018-01-27T09:41:30.524Z,56.50
2018-01-27T09:42:30.683Z,54.20
2018-01-27T09:43:30.549Z,57.60
2018-01-27T09:44:30.705Z,55.40
2018-01-27T09:45:30.578Z,53.30
2018-01-27T09:46:30.616Z,53.00
2018-01-27T09:47:30.615Z,51.80
2018-01-27T09:48:30.912Z,57.80
2018-01-27T09:49:30.769Z,57.00
2018-01-27T09:50:30.635Z,54.40
2018-01-27T09:51:30.645Z,51.70
2018-01-27T09:52:30.664Z,54.30
2018-01-27T09:53:30.673Z,50.30
2018-01-27T09:54:30.692Z,50.30
2018-01-27T09:55:30.702Z,51.30
2018-01-27T09:56:30.716Z,50.80
2018-01-27T09:57:30.734Z,47.10
2018-01-27T09:58:30.745Z,50.80
2018-01-27T09:59:30.758Z,49.40
2018-01-27T10:00:30.769Z,43.60
2018-01-27T10:01:30.787Z,42.90
2018-01-27T10:02:30.796Z,47.60
2018-01-27T10:03:30.947Z,46.30
2018-01-27T10:04:30.825Z,57.00
2018-01-27T10:05:30.839Z,37.90
2018-01-27T10:06:30.853Z,42.70
2018-01-27T10:07:31.117Z,41.10
2018-01-27T10:08:30.886Z,40.90
2018-01-27T10:09:31.049Z,43.50
2018-01-27T10:10:31.057Z,38.90
2018-01-27T10:11:30.923Z,48.40
2018-01-27T10:12:31.086Z,40.60
2018-01-27T10:13:30.954Z,38.20
2018-01-27T10:14:30.966Z,38.60
2018-01-27T10:15:31.599Z,38.50
2018-01-27T10:16:30.993Z,37.10
2018-01-27T10:17:31.008Z,33.10
2018-01-27T10:18:31.019Z,35.50
2018-01-27T10:19:31.039Z,32.60
2018-01-27T10:20:31.048Z,32.50
2018-01-27T10:21:31.064Z,32.90
2018-01-27T10:22:31.082Z,30.60
2018-01-27T10:23:31.091Z,30.20
2018-01-27T10:24:31.103Z,29.70
2018-01-27T10:25:31.120Z,27.40
2018-01-27T10:26:31.134Z,30.60
2018-01-27T10:27:31.147Z,25.90
2018-01-27T10:28:31.160Z,30.20
2018-01-27T10:29:31.175Z,30.00
2018-01-27T10:30:31.186Z,29.00
2018-01-27T10:31:31.200Z,32.10
2018-01-27T10:32:31.219Z,29.60
2018-01-27T10:33:31.232Z,33.80
2018-01-27T10:34:31.396Z,33.00
2018-01-27T10:35:31.263Z,32.30
2018-01-27T10:36:31.270Z,35.00
2018-01-27T10:37:31.284Z,32.30
2018-01-27T10:38:31.296Z,31.80
2018-01-27T10:39:31.311Z,34.80
2018-01-27T10:40:31.330Z,35.00
2018-01-27T10:41:31.339Z,37.30
2018-01-27T10:42:31.353Z,36.60
2018-01-27T10:43:31.366Z,35.70
2018-01-27T10:44:31.421Z,42.00
2018-01-27T10:45:31.395Z,40.50
2018-01-27T10:46:31.416Z,34.80
2018-01-27T10:47:31.425Z,35.30
2018-01-27T10:48:31.435Z,36.50
2018-01-27T10:49:31.447Z,40.00
2018-01-27T10:50:31.462Z,37.50
2018-01-27T10:51:31.481Z,36.80
2018-01-27T10:52:31.507Z,37.40
2018-01-27T10:53:31.502Z,41.20
2018-01-27T10:54:31.515Z,42.70
2018-01-27T10:55:31.528Z,40.10
2018-01-27T10:56:31.690Z,43.10
2018-01-27T10:57:31.555Z,37.50
2018-01-27T10:58:31.568Z,40.10
2018-01-27T10:59:31.583Z,39.10
2018-01-27T11:00:31.600Z,42.70
2018-01-27T11:01:31.759Z,43.20
2018-01-27T11:02:31.628Z,43.70
2018-01-27T11:03:31.638Z,38.80
2018-01-27T11:04:31.652Z,34.80
2018-01-27T11:05:31.664Z,38.00
2018-01-27T11:06:31.684Z,37.90
2018-01-27T11:07:31.692Z,36.30
2018-01-27T11:08:31.707Z,34.10
2018-01-27T11:09:31.721Z,37.20
2018-01-27T11:10:31.892Z,33.60
2018-01-27T11:11:31.749Z,34.70
2018-01-27T11:12:31.759Z,34.20
2018-01-27T11:13:31.778Z,35.00
2018-01-27T11:14:31.788Z,35.30
2018-01-27T11:15:31.965Z,32.20
2018-01-27T11:16:31.834Z,32.90
2018-01-27T11:17:31.832Z,34.60
2018-01-27T11:18:31.842Z,36.60
2018-01-27T11:19:31.864Z,35.20
2018-01-27T11:20:31.887Z,32.10
2018-01-27T11:21:31.901Z,34.60
2018-01-27T11:22:31.901Z,36.10
2018-01-27T11:23:31.942Z,37.00
2018-01-27T11:24:31.923Z,34.10
2018-01-27T11:25:31.993Z,38.20
2018-01-27T11:26:31.951Z,36.50
2018-01-27T11:27:32.693Z,36.20
2018-01-27T11:28:32.536Z,37.30
2018-01-27T11:29:31.991Z,37.80
2018-01-27T11:30:32.006Z,33.70
2018-01-27T11:31:32.019Z,35.90
2018-01-27T11:32:32.033Z,37.20
2018-01-27T11:33:32.051Z,34.40
2018-01-27T11:34:32.060Z,32.40
2018-01-27T11:35:32.074Z,34.20
2018-01-27T11:36:32.090Z,35.20
2018-01-27T11:37:32.102Z,34.90
2018-01-27T11:38:32.114Z,38.10
2018-01-27T11:39:32.129Z,37.10
2018-01-27T11:40:32.142Z,35.10
2018-01-27T11:41:32.164Z,35.70
2018-01-27T11:42:32.324Z,39.70
2018-01-27T11:43:32.184Z,37.30
2018-01-27T11:44:32.212Z,36.40
2018-01-27T11:45:32.211Z,37.00
2018-01-27T11:46:32.226Z,38.70
2018-01-27T11:47:32.238Z,38.10
2018-01-27T11:48:32.252Z,37.10
2018-01-27T11:49:32.269Z,36.70
2018-01-27T11:50:32.280Z,36.00
2018-01-27T11:51:32.295Z,39.40
2018-01-27T11:52:32.307Z,37.60
2018-01-27T11:53:32.326Z,41.40
2018-01-27T11:54:32.368Z,36.90
2018-01-27T11:55:32.368Z,40.40
2018-01-27T11:56:32.368Z,38.40
2018-01-27T11:57:32.375Z,39.40
2018-01-27T11:58:32.390Z,38.00
2018-01-27T11:59:32.403Z,42.00
2018-01-27T12:00:32.418Z,37.70
2018-01-27T12:01:32.429Z,38.90
2018-01-27T12:02:32.445Z,37.60
2018-01-27T12:03:32.458Z,40.20
2018-01-27T12:04:32.471Z,39.40
2018-01-27T12:05:32.486Z,38.10
2018-01-27T12:06:32.499Z,33.80
2018-01-27T12:07:32.532Z,35.50
2018-01-27T12:08:32.531Z,34.80
2018-01-27T12:09:32.699Z,39.00
2018-01-27T12:10:32.704Z,35.60
2018-01-27T12:11:32.570Z,36.40
2018-01-27T12:12:32.589Z,33.60
2018-01-27T12:13:32.597Z,37.40
2018-01-27T12:14:32.610Z,35.70
2018-01-27T12:15:32.623Z,36.00
2018-01-27T12:16:32.641Z,37.40
2018-01-27T12:17:32.652Z,33.90
2018-01-27T12:18:32.665Z,33.90
2018-01-27T12:19:32.679Z,35.60
2018-01-27T12:20:32.697Z,37.00
2018-01-27T12:21:32.708Z,37.30
2018-01-27T12:22:32.722Z,38.70
2018-01-27T12:23:32.735Z,33.50
2018-01-27T12:24:32.756Z,33.20
2018-01-27T12:25:32.816Z,39.70
2018-01-27T12:26:33.125Z,35.10
2018-01-27T12:27:32.807Z,31.90
2018-01-27T12:28:32.808Z,34.50
2018-01-27T12:29:32.819Z,33.00
2018-01-27T12:30:32.834Z,33.40
2018-01-27T12:31:32.848Z,32.90
2018-01-27T12:32:32.862Z,34.80
2018-01-27T12:33:32.880Z,29.30
2018-01-27T12:34:32.887Z,31.00
2018-01-27T12:35:32.905Z,30.50
2018-01-27T12:36:32.920Z,29.80
2018-01-27T12:37:32.933Z,33.50
2018-01-27T12:38:32.943Z,31.70
2018-01-27T12:39:32.959Z,32.40
2018-01-27T12:40:32.973Z,31.60
2018-01-27T12:41:33.091Z,37.80
2018-01-27T12:42:32.999Z,32.50
2018-01-27T12:43:33.017Z,32.60
2018-01-27T12:44:33.027Z,32.10
2018-01-27T12:45:33.041Z,31.70
2018-01-27T12:46:33.053Z,35.30
2018-01-27T12:47:33.116Z,34.50
2018-01-27T12:48:33.085Z,36.30
2018-01-27T12:49:33.098Z,32.40
2018-01-27T12:50:33.111Z,31.50
2018-01-27T12:51:33.126Z,29.70
2018-01-27T12:52:33.148Z,32.60
2018-01-27T12:53:33.162Z,36.30
2018-01-27T12:54:33.168Z,32.40
2018-01-27T12:55:33.182Z,34.00
2018-01-27T12:56:33.198Z,37.40
2018-01-27T12:57:33.238Z,34.10